KLFT/LFT METAR and TAF weather

Enter ICAO airport designator
Station Type Date Time Source
KLFT METAR 2021/01/27 11:53 UTC NOAA

KLFT 271153Z 33006KT 1/2SM FG VV003 16/15 A2998 RMK AO2 SLP150 70021 T01610150 10167 20161 53031


Station Type Date Time Source
KLFT Decoded METAR 2021/01/27 11:53 UTC NOAA

LAFAYETTE REGIONAL AIRPORT, LA, United States (KLFT) 30-12N 092-00W 11M
Jan 27, 2021 - 06:53 AM EST / 2021.01.27 1153 UTC
Wind: from the NNW (330 degrees) at 7 MPH (6 KT):0
Visibility: 1/2 mile(s):0
Sky conditions: obscured
Weather: fog
Temperature: 61.0 F (16.1 C)
Dew Point: 59.0 F (15.0 C)
Relative Humidity: 93%
Pressure (altimeter): 29.98 in. Hg (1015 hPa)
Pressure tendency: 0.09 inches (3.1 hPa) higher than three hours ago
ob: KLFT 271153Z 33006KT 1/2SM FG VV003 16/15 A2998 RMK AO2 SLP150 70021 T01610150 10167 20161 53031
cycle: 12

Station Type Date Time Source
KLFT TAF 2021/01/27 12:42 UTC NOAA

TAF KLFT 271139Z 2712/2812 33010G16KT P6SM VCSH OVC003
TEMPO 2712/2713 1/2SM FG VV002
FM271300 34012G18KT P6SM VCSH OVC007
FM271500 35018G26KT P6SM VCSH SCT010 OVC015
FM271700 36018G26KT P6SM BKN020
FM271900 36017G24KT P6SM SCT030
FM280100 36009KT P6SM SCT200

Example: see airport list